createdAt,value
2022-08-03T00:00:36.488Z,30.40
2022-08-03T00:03:04.488Z,30.40
2022-08-03T00:05:33.371Z,30.40
2022-08-03T00:08:02.816Z,30.40
2022-08-03T00:10:32.228Z,30.30
2022-08-03T00:12:59.945Z,30.30
2022-08-03T00:15:27.873Z,30.30
2022-08-03T00:17:55.652Z,30.30
2022-08-03T00:20:23.392Z,30.30
2022-08-03T00:22:51.407Z,30.30
2022-08-03T00:25:20.483Z,30.20
2022-08-03T00:27:48.465Z,30.30
2022-08-03T00:30:18.117Z,30.20
2022-08-03T00:32:45.821Z,30.20
2022-08-03T00:35:28.031Z,30.20
2022-08-03T00:38:01.446Z,30.20
2022-08-03T00:40:30.521Z,30.20
2022-08-03T00:42:59.899Z,30.10
2022-08-03T00:45:28.758Z,30.10
2022-08-03T00:47:57.087Z,30.10
2022-08-03T00:50:25.913Z,30.10
2022-08-03T00:52:54.965Z,30.10
2022-08-03T00:55:22.902Z,30.10
2022-08-03T00:57:52.089Z,30.00
2022-08-03T01:00:20.837Z,30.00
2022-08-03T01:02:50.887Z,30.00
2022-08-03T01:05:18.858Z,30.00
2022-08-03T01:07:54.762Z,30.00
2022-08-03T01:10:26.675Z,30.00
2022-08-03T01:13:00.488Z,30.00
2022-08-03T01:15:33.130Z,29.90
2022-08-03T01:18:04.465Z,30.00
2022-08-03T01:20:34.495Z,29.90
2022-08-03T01:23:09.067Z,29.90
2022-08-03T01:25:46.929Z,29.90
2022-08-03T01:28:30.272Z,29.90
2022-08-03T01:31:02.050Z,29.90
2022-08-03T01:33:32.776Z,29.90
2022-08-03T01:36:01.767Z,29.80
2022-08-03T01:38:31.918Z,29.90
2022-08-03T01:40:59.880Z,29.80
2022-08-03T01:44:26.829Z,29.80
2022-08-03T01:46:20.095Z,29.80
2022-08-03T01:48:48.789Z,29.80
2022-08-03T01:51:16.932Z,29.80
2022-08-03T01:53:44.920Z,29.70
2022-08-03T01:56:13.011Z,29.80
2022-08-03T01:58:41.178Z,29.80
2022-08-03T02:01:09.188Z,29.70
2022-08-03T02:03:58.108Z,29.70
2022-08-03T02:07:01.559Z,29.70
2022-08-03T02:09:16.232Z,29.70
2022-08-03T02:11:44.249Z,29.70
2022-08-03T02:14:12.193Z,29.70
2022-08-03T02:16:40.160Z,29.70
2022-08-03T02:19:10.891Z,29.70
2022-08-03T02:21:55.823Z,29.60
2022-08-03T02:24:25.556Z,29.70
2022-08-03T02:26:53.678Z,29.60
2022-08-03T02:29:39.401Z,29.70
2022-08-03T02:32:10.667Z,29.70
2022-08-03T02:34:39.842Z,29.70
2022-08-03T02:37:07.599Z,29.70
2022-08-03T02:39:35.404Z,29.60
2022-08-03T02:42:03.355Z,29.70
2022-08-03T02:44:32.950Z,29.60
2022-08-03T02:47:03.391Z,29.70
2022-08-03T02:49:40.443Z,29.60
2022-08-03T02:52:20.893Z,29.60
2022-08-03T02:54:48.757Z,29.60
2022-08-03T02:57:16.501Z,29.60
2022-08-03T02:59:44.263Z,29.60
2022-08-03T03:02:12.180Z,29.60
2022-08-03T03:04:43.173Z,29.60
2022-08-03T03:07:29.631Z,29.60
2022-08-03T03:10:02.048Z,29.60
2022-08-03T03:12:29.970Z,29.60
2022-08-03T03:14:57.986Z,29.60
2022-08-03T03:17:26.000Z,29.60
2022-08-03T03:19:53.820Z,29.60
2022-08-03T03:22:21.573Z,29.60
2022-08-03T03:24:51.852Z,29.60
2022-08-03T03:27:19.841Z,29.50
2022-08-03T03:29:49.032Z,29.50
2022-08-03T03:32:17.200Z,29.50
2022-08-03T03:34:45.221Z,29.50
2022-08-03T03:37:13.569Z,29.50
2022-08-03T03:39:41.269Z,29.50
2022-08-03T03:42:10.352Z,29.50
2022-08-03T03:44:38.057Z,29.50
2022-08-03T03:47:05.868Z,29.50
2022-08-03T03:49:33.736Z,29.50
2022-08-03T03:52:01.520Z,29.50
2022-08-03T03:54:40.313Z,29.50
2022-08-03T03:57:08.071Z,29.50
2022-08-03T03:59:42.342Z,29.50
2022-08-03T04:02:10.945Z,29.50
2022-08-03T04:04:57.209Z,29.50
2022-08-03T04:07:42.354Z,29.50
2022-08-03T04:10:31.333Z,29.50
2022-08-03T04:12:59.634Z,29.50
2022-08-03T04:15:29.086Z,29.50
2022-08-03T04:17:56.940Z,29.50
2022-08-03T04:20:24.768Z,29.50
2022-08-03T04:22:52.494Z,29.50
2022-08-03T04:25:20.249Z,29.50
2022-08-03T04:28:08.045Z,29.50
2022-08-03T04:30:38.481Z,29.50
2022-08-03T04:33:06.227Z,29.50
2022-08-03T04:35:58.510Z,29.50
2022-08-03T04:38:22.273Z,29.50
2022-08-03T04:40:49.995Z,29.50
2022-08-03T04:43:18.019Z,29.50
2022-08-03T04:45:48.115Z,29.50
2022-08-03T04:48:16.356Z,29.50
2022-08-03T04:50:44.413Z,29.50
2022-08-03T04:53:12.430Z,29.50
2022-08-03T04:55:40.836Z,29.50
2022-08-03T04:58:08.835Z,29.50
2022-08-03T05:00:36.790Z,29.50
2022-08-03T05:03:23.962Z,29.50
2022-08-03T05:05:53.167Z,29.50
2022-08-03T05:08:30.204Z,29.50
2022-08-03T05:10:59.595Z,29.40
2022-08-03T05:13:27.405Z,29.40
2022-08-03T05:15:55.160Z,29.40
2022-08-03T05:18:24.212Z,29.50
2022-08-03T05:20:52.141Z,29.50
2022-08-03T05:23:20.151Z,29.50
2022-08-03T05:25:50.122Z,29.50
2022-08-03T05:28:18.321Z,29.50
2022-08-03T05:30:46.412Z,29.50
2022-08-03T05:33:14.367Z,29.50
2022-08-03T05:36:00.925Z,29.50
2022-08-03T05:38:33.987Z,29.50
2022-08-03T05:41:20.963Z,29.50
2022-08-03T05:43:51.551Z,29.50
2022-08-03T05:46:19.447Z,29.50
2022-08-03T05:48:47.329Z,29.60
2022-08-03T05:51:16.650Z,29.60
2022-08-03T05:53:44.612Z,29.50
2022-08-03T05:56:14.393Z,29.60
2022-08-03T05:58:44.356Z,29.60
2022-08-03T06:01:12.376Z,29.60
2022-08-03T06:03:40.408Z,29.60
2022-08-03T06:06:08.297Z,29.60
2022-08-03T06:08:37.363Z,29.60
2022-08-03T06:11:05.114Z,29.60
2022-08-03T06:13:33.106Z,29.60
2022-08-03T06:16:00.831Z,29.70
2022-08-03T06:18:28.603Z,29.60
2022-08-03T06:20:56.330Z,29.70
2022-08-03T06:23:37.849Z,29.70
2022-08-03T06:26:13.548Z,29.70
2022-08-03T06:28:51.520Z,29.70
2022-08-03T06:31:21.334Z,29.80
2022-08-03T06:34:32.543Z,29.70
2022-08-03T06:36:36.784Z,29.80
2022-08-03T06:39:04.833Z,29.80
2022-08-03T06:41:38.125Z,29.80
2022-08-03T06:44:12.511Z,29.90
2022-08-03T06:46:40.504Z,29.90
2022-08-03T06:49:08.339Z,29.90
2022-08-03T06:52:04.887Z,29.90
2022-08-03T06:54:24.350Z,29.90
2022-08-03T06:56:53.414Z,30.00
2022-08-03T07:00:09.608Z,30.00
2022-08-03T07:02:09.685Z,30.10
2022-08-03T07:04:37.722Z,30.10
2022-08-03T07:07:05.598Z,30.20
2022-08-03T07:09:33.645Z,30.20
2022-08-03T07:12:04.448Z,30.20
2022-08-03T07:14:32.471Z,30.30
2022-08-03T07:17:00.466Z,30.30
2022-08-03T07:19:28.456Z,30.30
2022-08-03T07:21:58.301Z,30.30
2022-08-03T07:24:32.245Z,30.40
2022-08-03T07:27:00.134Z,30.40
2022-08-03T07:29:29.373Z,30.50
2022-08-03T07:32:02.576Z,30.60
2022-08-03T07:34:30.496Z,30.70
2022-08-03T07:36:58.430Z,30.70
2022-08-03T07:39:26.489Z,30.70
2022-08-03T07:41:54.451Z,30.80
2022-08-03T07:44:22.346Z,30.80
2022-08-03T07:46:51.950Z,30.80
2022-08-03T07:49:19.984Z,30.90
2022-08-03T07:52:07.977Z,31.00
2022-08-03T07:54:35.700Z,31.00
2022-08-03T07:57:03.404Z,31.00
2022-08-03T07:59:56.681Z,31.00
2022-08-03T08:02:20.392Z,31.10
2022-08-03T08:04:49.372Z,31.10
2022-08-03T08:07:17.088Z,31.10
2022-08-03T08:09:46.067Z,31.20
2022-08-03T08:12:15.138Z,31.30
2022-08-03T08:14:45.809Z,31.30
2022-08-03T08:17:13.626Z,31.30
2022-08-03T08:19:51.754Z,31.30
2022-08-03T08:22:30.039Z,31.40
2022-08-03T08:24:59.104Z,31.40
2022-08-03T08:27:27.215Z,31.40
2022-08-03T08:29:58.872Z,31.40
2022-08-03T08:32:30.647Z,31.50
2022-08-03T08:35:00.012Z,31.60
2022-08-03T08:37:28.139Z,31.60
2022-08-03T08:39:57.237Z,31.90
2022-08-03T08:42:25.221Z,32.10
2022-08-03T08:44:53.007Z,32.40
2022-08-03T08:47:20.835Z,32.50
2022-08-03T08:50:08.608Z,32.70
2022-08-03T08:52:40.357Z,32.80
2022-08-03T08:55:09.668Z,33.00
2022-08-03T08:57:43.301Z,33.10
2022-08-03T09:00:14.190Z,33.20
2022-08-03T09:02:43.610Z,33.30
2022-08-03T09:05:13.006Z,33.40
2022-08-03T09:07:42.508Z,33.50
2022-08-03T09:10:13.481Z,33.60
2022-08-03T09:12:43.925Z,33.70
2022-08-03T09:15:24.764Z,33.90
2022-08-03T09:17:53.544Z,34.00
2022-08-03T09:20:21.735Z,34.10
2022-08-03T09:22:58.858Z,34.20
2022-08-03T09:25:30.996Z,34.30
2022-08-03T09:28:06.152Z,34.50
2022-08-03T09:30:35.232Z,34.60
2022-08-03T09:33:03.586Z,34.70
2022-08-03T09:38:23.991Z,35.00
2022-08-03T09:40:54.827Z,35.10
2022-08-03T09:43:27.541Z,35.20
2022-08-03T09:46:03.462Z,35.30
2022-08-03T09:48:34.690Z,35.40
2022-08-03T09:51:13.253Z,35.50
2022-08-03T09:53:58.504Z,35.60
2022-08-03T09:56:39.791Z,35.70
2022-08-03T09:59:07.705Z,35.80
2022-08-03T10:01:35.906Z,35.90
2022-08-03T10:04:05.164Z,36.10
2022-08-03T10:06:33.316Z,36.20
2022-08-03T10:09:09.352Z,36.20
2022-08-03T10:11:41.252Z,36.40
2022-08-03T10:14:10.576Z,36.50
2022-08-03T10:16:39.035Z,36.60
2022-08-03T10:19:07.866Z,36.70
2022-08-03T10:21:36.176Z,36.80
2022-08-03T10:24:06.087Z,36.90
2022-08-03T10:26:37.471Z,37.00
2022-08-03T10:29:12.808Z,37.10
2022-08-03T10:31:54.733Z,37.20
2022-08-03T10:34:27.902Z,37.30
2022-08-03T10:37:00.250Z,37.50
2022-08-03T10:39:29.808Z,37.50
2022-08-03T10:42:02.443Z,37.60
2022-08-03T10:44:33.765Z,37.80
2022-08-03T10:47:01.689Z,37.90
2022-08-03T10:49:34.238Z,38.00
2022-08-03T10:52:31.402Z,38.10
2022-08-03T10:55:09.917Z,38.20
2022-08-03T10:57:50.164Z,38.30
2022-08-03T11:00:20.795Z,38.40
2022-08-03T11:03:10.963Z,38.50
2022-08-03T11:05:40.959Z,38.50
2022-08-03T11:08:28.904Z,38.60
2022-08-03T11:10:58.195Z,38.70
2022-08-03T11:13:28.332Z,38.80
2022-08-03T11:16:01.725Z,38.80
2022-08-03T11:18:30.859Z,38.90
2022-08-03T11:20:59.253Z,39.00
2022-08-03T11:24:02.729Z,39.00
2022-08-03T11:26:31.886Z,39.20
2022-08-03T11:29:27.936Z,39.30
2022-08-03T11:31:55.699Z,39.40
2022-08-03T11:34:24.454Z,39.40
2022-08-03T11:37:25.398Z,39.40
2022-08-03T11:39:57.141Z,39.40
2022-08-03T11:42:47.931Z,39.40
2022-08-03T11:45:19.774Z,39.40
2022-08-03T11:47:51.092Z,39.50
2022-08-03T11:50:20.072Z,39.50
2022-08-03T11:52:47.918Z,39.60
2022-08-03T11:55:18.816Z,39.70
2022-08-03T11:59:17.516Z,39.60
2022-08-03T12:00:36.272Z,39.60
2022-08-03T12:03:06.411Z,39.70
2022-08-03T12:05:51.715Z,39.80
2022-08-03T12:08:30.078Z,39.90
2022-08-03T12:10:58.524Z,39.90
2022-08-03T12:14:08.890Z,40.00
2022-08-03T12:16:20.618Z,40.10
2022-08-03T12:18:56.216Z,40.10
2022-08-03T12:21:24.690Z,40.20
2022-08-03T12:23:52.580Z,40.30
2022-08-03T12:26:20.324Z,40.30
2022-08-03T12:28:49.846Z,40.30
2022-08-03T12:31:19.160Z,40.40
2022-08-03T12:33:56.840Z,40.40
2022-08-03T12:36:24.675Z,40.50
2022-08-03T12:38:56.034Z,40.60
2022-08-03T12:41:29.028Z,40.60
2022-08-03T12:43:56.747Z,40.70
2022-08-03T12:46:30.993Z,40.70
2022-08-03T12:49:03.609Z,40.60
2022-08-03T12:51:33.116Z,40.60
2022-08-03T12:54:01.104Z,40.60
2022-08-03T12:56:29.110Z,40.60
2022-08-03T12:58:57.044Z,40.60
2022-08-03T13:01:27.994Z,40.60
2022-08-03T13:03:56.076Z,40.60
2022-08-03T13:06:24.901Z,40.50
2022-08-03T13:09:03.990Z,40.40
2022-08-03T13:11:53.632Z,40.40
2022-08-03T13:14:20.577Z,40.30
2022-08-03T13:16:50.228Z,40.30
2022-08-03T13:19:18.183Z,40.30
2022-08-03T13:21:53.739Z,40.40
2022-08-03T13:24:32.730Z,40.50
2022-08-03T13:27:00.697Z,40.60
2022-08-03T13:29:48.407Z,40.60
2022-08-03T13:32:17.451Z,40.60
2022-08-03T13:34:45.342Z,40.60
2022-08-03T13:37:13.326Z,40.60
2022-08-03T13:39:58.407Z,40.60
2022-08-03T13:42:27.921Z,40.70
2022-08-03T13:44:55.975Z,40.60
2022-08-03T13:47:25.343Z,40.60
2022-08-03T13:49:59.492Z,40.60
2022-08-03T13:52:28.370Z,40.60
2022-08-03T13:54:56.154Z,40.60
2022-08-03T13:58:04.969Z,40.60
2022-08-03T14:00:13.074Z,40.60
2022-08-03T14:03:02.967Z,40.60
2022-08-03T14:05:32.606Z,40.60
2022-08-03T14:08:04.773Z,40.60
2022-08-03T14:10:33.690Z,40.60
2022-08-03T14:13:01.452Z,40.60
2022-08-03T14:15:29.431Z,40.60
2022-08-03T14:17:58.986Z,40.60
2022-08-03T14:20:38.050Z,40.60
2022-08-03T14:23:14.826Z,40.50
2022-08-03T14:25:43.146Z,40.50
2022-08-03T14:28:18.460Z,40.50
2022-08-03T14:30:46.212Z,40.50
2022-08-03T14:33:15.296Z,40.40
2022-08-03T14:35:43.231Z,40.40
2022-08-03T14:38:10.972Z,40.30
2022-08-03T14:40:38.713Z,40.20
2022-08-03T14:43:06.953Z,40.10
2022-08-03T14:45:34.900Z,40.10
2022-08-03T14:50:31.463Z,40.00
2022-08-03T14:50:52.453Z,40.00
2022-08-03T14:53:20.401Z,39.90
2022-08-03T14:55:50.738Z,39.80
2022-08-03T14:58:19.886Z,39.80
2022-08-03T15:00:49.149Z,39.80
2022-08-03T15:03:20.250Z,39.80
2022-08-03T15:05:48.512Z,39.70
2022-08-03T15:08:17.833Z,39.70
2022-08-03T15:10:45.814Z,39.60
2022-08-03T15:13:16.371Z,39.50
2022-08-03T15:15:44.206Z,39.50
2022-08-03T15:18:12.202Z,39.50
2022-08-03T15:20:45.074Z,39.40
2022-08-03T15:23:13.737Z,39.40
2022-08-03T15:26:28.508Z,39.30
2022-08-03T15:28:30.661Z,39.30
2022-08-03T15:30:58.406Z,39.30
2022-08-03T15:33:26.111Z,39.20
2022-08-03T15:35:53.873Z,39.20
2022-08-03T15:38:22.885Z,39.20
2022-08-03T15:40:55.395Z,39.20
2022-08-03T15:43:23.247Z,39.10
2022-08-03T15:46:18.904Z,39.10
2022-08-03T15:48:38.903Z,39.10
2022-08-03T15:51:06.806Z,39.10
2022-08-03T15:53:34.711Z,39.10
2022-08-03T15:56:09.827Z,39.00
2022-08-03T15:59:10.174Z,39.00
2022-08-03T16:01:28.624Z,39.00
2022-08-03T16:03:56.626Z,38.90
2022-08-03T16:06:29.754Z,38.90
2022-08-03T16:09:05.279Z,38.90
2022-08-03T16:11:34.864Z,38.80
2022-08-03T16:14:12.964Z,38.80
2022-08-03T16:16:50.405Z,38.80
2022-08-03T16:19:18.125Z,38.70
2022-08-03T16:21:48.418Z,38.70
2022-08-03T16:24:17.206Z,38.70
2022-08-03T16:26:49.073Z,38.60
2022-08-03T16:29:22.366Z,38.60
2022-08-03T16:31:51.816Z,38.60
2022-08-03T16:34:20.225Z,38.50
2022-08-03T16:36:48.236Z,38.50
2022-08-03T16:39:16.314Z,38.50
2022-08-03T16:41:54.998Z,38.40
2022-08-03T16:44:31.489Z,38.40
2022-08-03T16:46:59.381Z,38.40
2022-08-03T16:49:54.130Z,38.40
2022-08-03T16:52:16.614Z,38.30
2022-08-03T16:54:50.743Z,38.30
2022-08-03T16:57:29.906Z,38.30
2022-08-03T17:00:11.826Z,38.20
2022-08-03T17:02:39.832Z,38.20
2022-08-03T17:05:16.253Z,38.10
2022-08-03T17:07:46.843Z,38.10
2022-08-03T17:10:21.861Z,38.10
2022-08-03T17:12:50.324Z,38.00
2022-08-03T17:15:19.665Z,38.00
2022-08-03T17:18:06.766Z,38.00
2022-08-03T17:20:35.447Z,38.00
2022-08-03T17:23:15.860Z,37.90
2022-08-03T17:26:02.462Z,37.90
2022-08-03T17:28:51.103Z,37.90
2022-08-03T17:31:31.120Z,37.80
2022-08-03T17:34:00.879Z,37.80
2022-08-03T17:39:17.106Z,37.80
2022-08-03T17:44:41.470Z,37.70
2022-08-03T17:47:15.466Z,37.70
2022-08-03T17:49:47.208Z,37.60
2022-08-03T17:52:18.336Z,37.60
2022-08-03T17:55:50.591Z,37.50
2022-08-03T17:58:01.374Z,37.50
2022-08-03T18:00:46.525Z,37.50
2022-08-03T18:03:24.096Z,37.40
2022-08-03T18:06:10.562Z,37.30
2022-08-03T18:08:44.077Z,37.30
2022-08-03T18:11:15.218Z,37.20
2022-08-03T18:13:57.664Z,37.20
2022-08-03T18:16:28.360Z,37.10
2022-08-03T18:18:58.198Z,37.10
2022-08-03T18:21:28.160Z,37.00
2022-08-03T18:24:15.998Z,37.00
2022-08-03T18:26:48.434Z,36.90
2022-08-03T18:29:16.619Z,36.90
2022-08-03T18:32:03.352Z,36.80
2022-08-03T18:34:34.509Z,36.70
2022-08-03T18:37:07.270Z,36.70
2022-08-03T18:39:39.026Z,36.70
2022-08-03T18:42:19.982Z,36.60
2022-08-03T18:44:55.960Z,36.60
2022-08-03T18:47:50.890Z,36.10
2022-08-03T18:50:25.876Z,34.60
2022-08-03T18:52:57.392Z,33.80
2022-08-03T18:55:33.613Z,33.00
2022-08-03T18:58:07.193Z,32.60
2022-08-03T19:00:54.165Z,32.40
2022-08-03T19:03:24.318Z,31.70
2022-08-03T19:06:02.683Z,31.40
2022-08-03T19:08:38.226Z,31.60
2022-08-03T19:11:07.398Z,31.70
2022-08-03T19:13:40.400Z,31.20
2022-08-03T19:16:13.560Z,30.50
2022-08-03T19:18:46.831Z,30.70
2022-08-03T19:21:18.447Z,30.90
2022-08-03T19:23:46.846Z,30.40
2022-08-03T19:26:30.370Z,30.30
2022-08-03T19:28:58.708Z,30.70
2022-08-03T19:31:31.187Z,30.90
2022-08-03T19:34:03.101Z,31.00
2022-08-03T19:36:33.004Z,30.70
2022-08-03T19:39:09.151Z,30.60
2022-08-03T19:41:41.903Z,30.80
2022-08-03T19:44:11.522Z,30.90
2022-08-03T19:46:42.744Z,30.30
2022-08-03T19:49:15.102Z,30.50
2022-08-03T19:52:01.798Z,30.30
2022-08-03T19:54:36.815Z,29.80
2022-08-03T19:57:16.049Z,30.00
2022-08-03T19:59:50.014Z,29.50
2022-08-03T20:02:26.293Z,29.70
2022-08-03T20:04:55.905Z,29.50
2022-08-03T20:07:25.636Z,29.60
2022-08-03T20:09:56.444Z,29.70
2022-08-03T20:12:26.622Z,29.80
2022-08-03T20:14:56.283Z,29.90
2022-08-03T20:17:54.084Z,29.70
2022-08-03T20:20:12.344Z,29.90
2022-08-03T20:22:43.066Z,29.60
2022-08-03T20:25:16.268Z,29.70
2022-08-03T20:28:07.764Z,29.90
2022-08-03T20:30:37.008Z,29.70
2022-08-03T20:33:05.237Z,29.70
2022-08-03T20:35:33.931Z,29.80
2022-08-03T20:38:03.199Z,29.70
2022-08-03T20:40:31.137Z,29.50
2022-08-03T20:42:59.726Z,29.50
2022-08-03T20:46:01.173Z,29.50
2022-08-03T20:48:17.912Z,29.40
2022-08-03T20:50:49.987Z,29.40
2022-08-03T20:53:41.294Z,29.30
2022-08-03T20:56:07.106Z,29.30
2022-08-03T20:58:35.317Z,29.30
2022-08-03T21:01:04.130Z,29.30
2022-08-03T21:03:41.109Z,29.30
2022-08-03T21:06:27.704Z,29.20
2022-08-03T21:09:04.116Z,29.00
2022-08-03T21:11:41.638Z,29.00
2022-08-03T21:12:54.737Z,37.70
2022-08-03T21:14:12.275Z,29.10
2022-08-03T21:16:40.693Z,29.10
2022-08-03T21:19:08.589Z,29.10
2022-08-03T21:21:36.512Z,29.00
2022-08-03T21:24:06.408Z,28.90
2022-08-03T21:26:34.871Z,28.90
2022-08-03T21:29:02.654Z,28.80
2022-08-03T21:31:30.630Z,28.60
2022-08-03T21:33:59.557Z,28.60
2022-08-03T21:36:27.984Z,28.70
2022-08-03T21:38:57.547Z,28.60
2022-08-03T21:41:27.543Z,28.50
2022-08-03T21:43:55.339Z,28.50
2022-08-03T21:46:23.431Z,28.50
2022-08-03T21:48:54.938Z,28.50
2022-08-03T21:51:24.436Z,28.30
2022-08-03T21:54:03.257Z,28.40
2022-08-03T21:56:36.923Z,28.50
2022-08-03T21:59:06.471Z,28.40
2022-08-03T22:01:35.268Z,28.30
2022-08-03T22:04:05.001Z,28.10
2022-08-03T22:06:34.759Z,28.00
2022-08-03T22:09:02.753Z,28.00
2022-08-03T22:11:30.819Z,28.10
2022-08-03T22:14:01.111Z,28.20
2022-08-03T22:16:29.084Z,28.10
2022-08-03T22:18:57.031Z,27.80
2022-08-03T22:21:35.734Z,27.80
2022-08-03T22:24:05.037Z,28.00
2022-08-03T22:26:35.370Z,27.90
2022-08-03T22:29:07.517Z,27.90
2022-08-03T22:31:57.381Z,28.00
2022-08-03T22:34:26.360Z,27.90
2022-08-03T22:36:56.564Z,27.90
2022-08-03T22:39:28.496Z,27.80
2022-08-03T22:41:56.539Z,27.80
2022-08-03T22:44:26.083Z,27.90
2022-08-03T22:46:54.016Z,27.80
2022-08-03T22:49:22.046Z,27.80
2022-08-03T22:51:50.102Z,27.80
2022-08-03T22:54:18.036Z,27.70
2022-08-03T22:56:46.121Z,27.60
2022-08-03T22:59:40.784Z,27.50
2022-08-03T23:02:20.097Z,27.40
2022-08-03T23:04:51.441Z,27.50
2022-08-03T23:07:21.862Z,27.30
2022-08-03T23:09:50.174Z,27.50
2022-08-03T23:12:19.394Z,27.40
2022-08-03T23:14:50.562Z,27.40
2022-08-03T23:17:19.863Z,27.50
2022-08-03T23:19:47.743Z,27.50
2022-08-03T23:22:28.608Z,27.20
2022-08-03T23:24:58.697Z,27.10
2022-08-03T23:27:26.708Z,27.10
2022-08-03T23:29:54.435Z,27.10
2022-08-03T23:32:23.513Z,27.00
2022-08-03T23:35:08.958Z,26.90
2022-08-03T23:38:04.812Z,26.80
2022-08-03T23:40:25.716Z,27.00
2022-08-03T23:42:53.583Z,26.80
2022-08-03T23:45:21.710Z,26.70
2022-08-03T23:47:51.423Z,26.80
2022-08-03T23:50:19.356Z,27.00
2022-08-03T23:52:55.300Z,26.90
2022-08-03T23:55:27.159Z,27.00
2022-08-03T23:58:02.555Z,26.70
